createdAt,value
2017-03-04T06:50:54.707Z,996.98
2017-03-04T06:51:54.720Z,997.03
2017-03-04T06:52:54.769Z,997.04
2017-03-04T06:53:54.788Z,997.03
2017-03-04T06:54:54.818Z,997.06
2017-03-04T06:55:54.844Z,997.07
2017-03-04T06:56:54.888Z,997.05
2017-03-04T06:57:54.895Z,997.07
2017-03-04T06:58:54.922Z,997.07
2017-03-04T06:59:54.950Z,997.06
2017-03-04T07:00:54.977Z,997.04
2017-03-04T07:01:55.205Z,997.06
2017-03-04T07:02:55.030Z,997.05
2017-03-04T07:03:55.059Z,997.07
2017-03-04T07:04:55.087Z,997.09
2017-03-04T07:05:55.125Z,997.14
2017-03-04T07:06:55.138Z,997.08
2017-03-04T07:07:55.168Z,997.05
2017-03-04T07:08:55.193Z,997.1
2017-03-04T07:09:55.319Z,997.03
2017-03-04T07:10:55.251Z,997.1
2017-03-04T07:11:55.283Z,997.11
2017-03-04T07:12:55.308Z,997.1
2017-03-04T07:13:55.318Z,997.1
2017-03-04T07:14:55.361Z,997.07
2017-03-04T07:15:55.390Z,997.09
2017-03-04T07:16:55.414Z,997.06
2017-03-04T07:17:55.445Z,997
2017-03-04T07:18:55.474Z,996.96
2017-03-04T07:19:55.503Z,997.01
2017-03-04T07:20:55.525Z,996.98
2017-03-04T07:21:55.557Z,996.99
2017-03-04T07:22:55.582Z,997
2017-03-04T07:23:55.614Z,996.96
2017-03-04T07:24:55.640Z,996.93
2017-03-04T07:25:55.666Z,996.95
2017-03-04T07:26:55.702Z,996.93
2017-03-04T07:27:55.704Z,996.95
2017-03-04T07:28:55.754Z,996.93
2017-03-04T07:29:55.785Z,996.98
2017-03-04T07:30:55.812Z,996.95
2017-03-04T07:31:55.839Z,996.91
2017-03-04T07:32:55.863Z,996.98
2017-03-04T07:33:55.896Z,996.96
2017-03-04T07:34:55.903Z,996.93
2017-03-04T07:35:55.949Z,996.94
2017-03-04T07:36:55.980Z,996.97
2017-03-04T07:37:56.008Z,996.96
2017-03-04T07:38:56.038Z,996.93
2017-03-04T07:39:56.067Z,996.89
2017-03-04T07:40:56.096Z,996.91
2017-03-04T07:41:56.120Z,996.92
2017-03-04T07:42:56.151Z,996.85
2017-03-04T07:43:56.183Z,996.88
2017-03-04T07:44:56.212Z,996.92
2017-03-04T07:45:56.239Z,996.85
2017-03-04T07:46:56.266Z,996.93
2017-03-04T07:47:56.297Z,996.85
2017-03-04T07:48:56.322Z,996.8
2017-03-04T07:49:56.352Z,996.84
2017-03-04T07:50:56.384Z,996.81
2017-03-04T07:51:56.418Z,996.85
2017-03-04T07:52:56.442Z,996.91
2017-03-04T07:53:56.467Z,996.89
2017-03-04T07:54:56.501Z,996.92
2017-03-04T07:55:56.525Z,996.86
2017-03-04T07:56:56.557Z,996.88
2017-03-04T07:57:56.587Z,996.87
2017-03-04T07:58:56.616Z,996.85
2017-03-04T07:59:56.656Z,996.86
2017-03-04T08:00:56.678Z,996.8
2017-03-04T08:01:56.711Z,996.83
2017-03-04T08:02:56.739Z,996.84
2017-03-04T08:03:56.770Z,996.88
2017-03-04T08:04:56.797Z,996.84
2017-03-04T08:05:56.826Z,996.85
2017-03-04T08:06:56.857Z,996.86
2017-03-04T08:07:56.888Z,996.91
2017-03-04T08:08:56.919Z,996.88
2017-03-04T08:09:56.949Z,996.87
2017-03-04T08:10:56.991Z,996.83
2017-03-04T08:11:57.014Z,996.85
2017-03-04T08:12:57.040Z,996.86
2017-03-04T08:13:57.079Z,996.92
2017-03-04T08:14:57.106Z,996.87
2017-03-04T08:15:57.117Z,996.89
2017-03-04T08:16:57.166Z,996.87
2017-03-04T08:17:57.198Z,996.86
2017-03-04T08:18:57.233Z,996.87
2017-03-04T08:19:57.375Z,996.91
2017-03-04T08:20:57.296Z,996.96
2017-03-04T08:21:57.329Z,996.99
2017-03-04T08:22:57.363Z,996.85
2017-03-04T08:23:57.395Z,996.84
2017-03-04T08:24:57.425Z,996.89
2017-03-04T08:25:57.456Z,996.9
2017-03-04T08:26:57.484Z,996.91
2017-03-04T08:27:57.527Z,996.89
2017-03-04T08:28:57.551Z,996.99
2017-03-04T08:29:57.618Z,996.93
2017-03-04T08:30:57.619Z,996.91
2017-03-04T08:31:57.651Z,996.97
2017-03-04T08:32:57.679Z,996.95
2017-03-04T08:33:57.714Z,996.97
2017-03-04T08:34:57.732Z,997
2017-03-04T08:35:57.767Z,996.95
2017-03-04T08:36:57.824Z,996.96
2017-03-04T08:37:57.832Z,996.97
2017-03-04T08:38:57.882Z,996.91
2017-03-04T08:39:57.916Z,997
2017-03-04T08:40:57.934Z,997.03
2017-03-04T08:41:57.985Z,997.05
2017-03-04T08:42:58.019Z,997.02
2017-03-04T08:43:58.051Z,997.08
2017-03-04T08:44:58.086Z,996.98
2017-03-04T08:45:58.118Z,997.05
2017-03-04T08:46:58.135Z,996.9
2017-03-04T08:47:58.191Z,996.97
2017-03-04T08:48:58.212Z,996.89
2017-03-04T08:49:58.241Z,997
2017-03-04T08:50:58.297Z,997.09
2017-03-04T08:51:58.336Z,997.07
2017-03-04T08:52:58.367Z,996.96
2017-03-04T08:53:58.406Z,996.92
2017-03-04T08:54:58.443Z,996.82
2017-03-04T08:55:58.479Z,996.87
2017-03-04T08:56:58.511Z,996.9
2017-03-04T08:57:58.551Z,996.98
2017-03-04T08:58:58.584Z,997.02
2017-03-04T08:59:58.621Z,996.92
2017-03-04T09:00:58.652Z,997
2017-03-04T09:01:58.701Z,997.05
2017-03-04T09:02:58.746Z,996.99
2017-03-04T09:03:58.749Z,997.02
2017-03-04T09:04:58.809Z,996.93
2017-03-04T09:05:58.844Z,997
2017-03-04T09:06:58.882Z,997.13
2017-03-04T09:07:58.919Z,997.03
2017-03-04T09:08:58.955Z,997.08
2017-03-04T09:09:58.994Z,997.08
2017-03-04T09:10:59.052Z,996.92
2017-03-04T09:11:59.072Z,997
2017-03-04T09:12:59.105Z,997.16
2017-03-04T09:13:59.148Z,997.09
2017-03-04T09:14:59.191Z,997.18
2017-03-04T09:15:59.222Z,997.23
2017-03-04T09:16:59.237Z,997.31
2017-03-04T09:17:59.299Z,997.06
2017-03-04T09:18:59.338Z,996.92
2017-03-04T09:19:59.382Z,996.8
2017-03-04T09:20:59.412Z,996.66
2017-03-04T09:21:59.454Z,996.54
2017-03-04T09:22:59.491Z,996.41
2017-03-04T09:23:59.537Z,996.36
2017-03-04T09:24:59.552Z,996.37
2017-03-04T09:25:59.608Z,996.34
2017-03-04T09:26:59.650Z,996.21
2017-03-04T09:27:59.688Z,996.3
2017-03-04T09:28:59.725Z,996.32
2017-03-04T09:29:59.760Z,996.29
2017-03-04T09:30:59.804Z,996.25
2017-03-04T09:31:59.847Z,996.23
2017-03-04T09:32:59.884Z,996.22
2017-03-04T09:33:59.923Z,996.19
2017-03-04T09:34:59.964Z,996.15
2017-03-04T09:36:00.007Z,996.16
2017-03-04T09:37:00.049Z,996.06
2017-03-04T09:38:00.089Z,996.13
2017-03-04T09:39:00.128Z,996
2017-03-04T09:40:00.173Z,995.99
2017-03-04T09:41:00.211Z,996.05
2017-03-04T09:42:00.265Z,996.02
2017-03-04T09:43:00.280Z,996.03
2017-03-04T09:44:00.330Z,996
2017-03-04T09:45:00.366Z,996.06
2017-03-04T09:46:00.415Z,996.03
2017-03-04T09:47:00.455Z,996.05
2017-03-04T09:48:00.499Z,996.04
2017-03-04T09:49:00.541Z,996.03
2017-03-04T09:50:00.580Z,996.03
2017-03-04T09:51:00.923Z,996.06
2017-03-04T09:52:00.645Z,996.02
2017-03-04T09:53:00.692Z,996.04
2017-03-04T09:54:00.750Z,995.97
2017-03-04T09:55:00.800Z,995.97
2017-03-04T09:56:00.829Z,995.97
2017-03-04T09:57:00.858Z,995.96
2017-03-04T09:58:00.913Z,995.95
2017-03-04T09:59:00.948Z,995.96
2017-03-04T10:00:00.991Z,995.93
2017-03-04T10:01:01.043Z,995.95
2017-03-04T10:02:01.075Z,995.95
2017-03-04T10:03:01.117Z,995.97
2017-03-04T10:04:01.157Z,995.99
2017-03-04T10:05:01.200Z,995.97
2017-03-04T10:06:01.238Z,995.99
2017-03-04T10:07:01.278Z,995.93
2017-03-04T10:08:01.320Z,995.88
2017-03-04T10:09:01.357Z,995.99
2017-03-04T10:10:01.397Z,995.94
2017-03-04T10:11:01.442Z,995.97
2017-03-04T10:12:01.483Z,995.91
2017-03-04T10:13:01.524Z,995.91
2017-03-04T10:14:01.545Z,995.98
2017-03-04T10:15:01.586Z,995.93
2017-03-04T10:16:01.647Z,995.98
2017-03-04T10:17:01.685Z,996
2017-03-04T10:18:01.772Z,996.05
2017-03-04T10:19:01.743Z,996.04
2017-03-04T10:20:01.821Z,996.06
2017-03-04T10:21:01.843Z,996
2017-03-04T10:22:01.886Z,995.98
2017-03-04T10:23:01.928Z,995.94
2017-03-04T10:24:01.963Z,995.99
2017-03-04T10:25:01.998Z,995.97
2017-03-04T10:26:02.041Z,995.99
2017-03-04T10:27:02.082Z,995.97
2017-03-04T10:28:02.127Z,996.04
2017-03-04T10:29:02.143Z,996.06
2017-03-04T10:30:02.265Z,996.07
2017-03-04T10:31:02.242Z,996.09
2017-03-04T10:32:02.279Z,996.1
2017-03-04T10:33:02.321Z,996.16
2017-03-04T10:34:02.341Z,996.18
2017-03-04T10:35:02.606Z,996.17
2017-03-04T10:36:02.439Z,996.22
2017-03-04T10:37:02.479Z,996.31
2017-03-04T10:38:02.521Z,996.41
2017-03-04T10:39:02.559Z,996.46
2017-03-04T10:40:02.602Z,996.63
2017-03-04T10:41:02.631Z,996.63
2017-03-04T10:42:02.765Z,996.83
2017-03-04T10:43:02.707Z,996.96
2017-03-04T10:44:02.748Z,996.86
2017-03-04T10:45:02.775Z,996.92
2017-03-04T10:46:02.822Z,997.16
2017-03-04T10:47:02.841Z,997.35
2017-03-04T10:48:02.898Z,997.54
2017-03-04T10:49:02.948Z,997.76
2017-03-04T10:50:02.977Z,997.68
2017-03-04T10:51:03.015Z,997.95
2017-03-04T10:52:03.047Z,998.13
2017-03-04T10:53:03.098Z,998.07
2017-03-04T10:54:03.129Z,997.86
2017-03-04T10:55:03.147Z,997.83
2017-03-04T10:56:03.199Z,997.8
2017-03-04T10:57:03.241Z,997.98
2017-03-04T10:58:03.276Z,997.99
2017-03-04T10:59:03.313Z,997.73
2017-03-04T11:00:03.357Z,997.54
2017-03-04T11:01:03.389Z,997.47
2017-03-04T11:02:03.422Z,996.41
2017-03-04T11:03:03.445Z,995.69
2017-03-04T11:04:03.502Z,995.61
2017-03-04T11:05:03.533Z,995.53
2017-03-04T11:06:03.573Z,995.55
2017-03-04T11:07:03.602Z,995.53
2017-03-04T11:08:03.648Z,995.49
2017-03-04T11:09:03.687Z,995.53
2017-03-04T11:10:03.706Z,995.46
2017-03-04T11:11:03.747Z,995.43
2017-03-04T11:12:03.799Z,995.48
2017-03-04T11:13:03.834Z,995.47
2017-03-04T11:14:03.878Z,995.43
2017-03-04T11:15:03.912Z,995.35
2017-03-04T11:16:03.960Z,995.42
2017-03-04T11:17:03.981Z,995.34
2017-03-04T11:18:04.016Z,995.25
2017-03-04T11:19:04.059Z,995.31
2017-03-04T11:20:04.126Z,995.28
2017-03-04T11:21:04.130Z,995.28
2017-03-04T11:22:04.167Z,995.27
2017-03-04T11:23:04.214Z,995.29
2017-03-04T11:24:04.238Z,995.25
2017-03-04T11:25:04.280Z,995.27
2017-03-04T11:26:04.312Z,995.25
2017-03-04T11:27:04.353Z,995.25
2017-03-04T11:28:04.387Z,995.27
2017-03-04T11:29:04.425Z,995.24
2017-03-04T11:30:04.480Z,995.24
2017-03-04T11:31:04.497Z,995.23
2017-03-04T11:32:04.531Z,995.2
2017-03-04T11:33:04.665Z,995.1
2017-03-04T11:34:04.605Z,995.07
2017-03-04T11:35:04.663Z,995.04
2017-03-04T11:36:04.661Z,995.08
2017-03-04T11:37:04.712Z,995.09
2017-03-04T11:38:04.755Z,995.08
2017-03-04T11:39:04.783Z,995.11
2017-03-04T11:40:04.808Z,995.01
2017-03-04T11:41:04.865Z,994.99
2017-03-04T11:42:04.894Z,995.01
2017-03-04T11:43:04.933Z,995.02
2017-03-04T11:44:04.948Z,995.05
2017-03-04T11:45:05.006Z,994.93
2017-03-04T11:46:05.042Z,994.92
2017-03-04T11:47:05.074Z,994.87
2017-03-04T11:48:05.113Z,994.94
2017-03-04T11:49:05.152Z,994.93
2017-03-04T11:50:05.183Z,994.93
2017-03-04T11:51:05.219Z,994.93
2017-03-04T11:52:05.258Z,994.9
2017-03-04T11:53:05.292Z,994.87
2017-03-04T11:54:05.333Z,994.91
2017-03-04T11:55:05.366Z,994.86
2017-03-04T11:56:05.384Z,994.88
2017-03-04T11:57:05.437Z,994.8
2017-03-04T11:58:05.463Z,994.78
2017-03-04T11:59:05.511Z,994.79
2017-03-04T12:00:05.741Z,994.79
2017-03-04T12:01:05.563Z,994.81
2017-03-04T12:02:05.618Z,994.79
2017-03-04T12:03:05.654Z,994.78
2017-03-04T12:04:05.688Z,994.81
2017-03-04T12:05:05.723Z,994.76
2017-03-04T12:06:05.762Z,994.74
2017-03-04T12:07:05.812Z,994.67
2017-03-04T12:08:05.834Z,994.69
2017-03-04T12:09:05.864Z,994.65
2017-03-04T12:10:05.905Z,994.62
2017-03-04T12:11:05.940Z,994.64
2017-03-04T12:12:05.969Z,994.65
2017-03-04T12:13:06.011Z,994.62
2017-03-04T12:14:06.046Z,994.57
2017-03-04T12:15:06.086Z,994.52
2017-03-04T12:16:06.118Z,994.52
2017-03-04T12:17:06.154Z,994.53
2017-03-04T12:18:06.188Z,994.52
2017-03-04T12:19:06.222Z,994.5
2017-03-04T12:20:06.262Z,994.49
2017-03-04T12:21:06.294Z,994.48
2017-03-04T12:22:06.354Z,994.45
2017-03-04T12:23:06.362Z,994.43
2017-03-04T12:24:06.500Z,994.44
2017-03-04T12:25:06.436Z,994.43
2017-03-04T12:26:06.448Z,994.36
2017-03-04T12:27:06.506Z,994.37
2017-03-04T12:28:06.545Z,994.36
2017-03-04T12:29:06.559Z,994.37
2017-03-04T12:30:06.617Z,994.37
2017-03-04T12:31:06.646Z,994.39
2017-03-04T12:32:06.681Z,994.32
2017-03-04T12:33:06.711Z,994.28
2017-03-04T12:34:06.737Z,994.27
2017-03-04T12:35:06.785Z,994.24
2017-03-04T12:36:06.825Z,994.24
2017-03-04T12:37:06.856Z,994.16
2017-03-04T12:38:06.889Z,994.16
2017-03-04T12:39:06.925Z,994.11
2017-03-04T12:40:06.964Z,994.16
2017-03-04T12:41:06.998Z,994.12
2017-03-04T12:42:07.027Z,994.14
2017-03-04T12:43:07.052Z,994.08
2017-03-04T12:44:07.099Z,994.06
2017-03-04T12:45:07.148Z,994.08
2017-03-04T12:46:07.170Z,994.09
2017-03-04T12:47:07.208Z,994.02
2017-03-04T12:48:07.228Z,994.04
2017-03-04T12:49:07.273Z,994
2017-03-04T12:50:07.310Z,994.01
2017-03-04T12:51:07.346Z,993.96
2017-03-04T12:52:07.382Z,993.97
2017-03-04T12:53:07.411Z,993.89
2017-03-04T12:54:07.452Z,993.94
2017-03-04T12:55:07.468Z,993.87
2017-03-04T12:56:07.529Z,993.86
2017-03-04T12:57:07.556Z,993.83
2017-03-04T12:58:07.587Z,993.87
2017-03-04T12:59:07.623Z,993.84
2017-03-04T13:00:07.666Z,993.85
2017-03-04T13:01:07.695Z,993.77
2017-03-04T13:02:07.729Z,993.76
2017-03-04T13:03:07.768Z,993.75
2017-03-04T13:04:07.800Z,993.73
2017-03-04T13:05:07.834Z,993.68
2017-03-04T13:06:07.866Z,993.73
2017-03-04T13:07:07.902Z,993.68
2017-03-04T13:08:07.932Z,993.66
2017-03-04T13:09:07.973Z,993.66
2017-03-04T13:10:08.031Z,993.62
2017-03-04T13:11:08.042Z,993.6
2017-03-04T13:12:08.080Z,993.68
2017-03-04T13:13:08.110Z,993.6
2017-03-04T13:14:08.147Z,993.66
2017-03-04T13:15:08.179Z,993.65
2017-03-04T13:16:08.214Z,993.62
2017-03-04T13:17:08.248Z,993.6
2017-03-04T13:18:08.263Z,993.64
2017-03-04T13:19:08.321Z,993.62
2017-03-04T13:20:08.501Z,993.59
2017-03-04T13:21:08.375Z,993.62
2017-03-04T13:22:08.419Z,993.58
2017-03-04T13:23:08.464Z,993.61
2017-03-04T13:24:08.498Z,993.5
2017-03-04T13:25:08.529Z,993.56
2017-03-04T13:26:08.567Z,993.52
2017-03-04T13:27:08.601Z,993.52
2017-03-04T13:28:08.630Z,993.48
2017-03-04T13:29:08.671Z,993.44
2017-03-04T13:30:08.721Z,993.44
2017-03-04T13:31:08.741Z,993.44
2017-03-04T13:32:08.773Z,993.45
2017-03-04T13:33:08.854Z,993.46
2017-03-04T13:34:08.842Z,993.41
2017-03-04T13:35:08.866Z,993.41
2017-03-04T13:36:08.913Z,993.36
2017-03-04T13:37:08.946Z,993.37
2017-03-04T13:38:08.982Z,993.38
2017-03-04T13:39:09.020Z,993.38
2017-03-04T13:40:09.052Z,993.37
2017-03-04T13:41:09.073Z,993.32
2017-03-04T13:42:09.125Z,993.4
2017-03-04T13:43:09.145Z,993.37
2017-03-04T13:44:09.174Z,993.38
2017-03-04T13:45:09.231Z,993.41
2017-03-04T13:46:09.263Z,993.35
2017-03-04T13:47:09.308Z,993.42
2017-03-04T13:48:09.342Z,993.37
2017-03-04T13:49:09.368Z,993.36
2017-03-04T13:50:09.401Z,993.36
2017-03-04T13:51:09.441Z,993.38
2017-03-04T13:52:09.473Z,993.38
2017-03-04T13:53:09.507Z,993.35
2017-03-04T13:54:09.541Z,993.33
2017-03-04T13:55:09.578Z,993.35
2017-03-04T13:56:09.610Z,993.31
2017-03-04T13:57:09.645Z,993.34
2017-03-04T13:58:09.677Z,993.29
2017-03-04T13:59:09.716Z,993.28
2017-03-04T14:00:09.748Z,993.19
2017-03-04T14:01:09.779Z,993.24
2017-03-04T14:02:09.819Z,993.2
2017-03-04T14:03:09.854Z,993.18
2017-03-04T14:04:09.874Z,993.12
2017-03-04T14:05:09.921Z,993.16
2017-03-04T14:06:09.944Z,993.19
2017-03-04T14:07:09.999Z,993.14
2017-03-04T14:08:10.031Z,993.15
2017-03-04T14:09:10.066Z,993.19
2017-03-04T14:10:10.101Z,993.18
2017-03-04T14:11:10.134Z,993.2
2017-03-04T14:12:10.172Z,993.17
2017-03-04T14:13:10.203Z,993.16
2017-03-04T14:14:10.239Z,993.13
2017-03-04T14:15:10.272Z,993.18
2017-03-04T14:16:10.307Z,993.13
2017-03-04T14:17:10.343Z,993.16
2017-03-04T14:18:10.379Z,993.11
2017-03-04T14:19:10.414Z,993.1
2017-03-04T14:20:10.447Z,993.13
2017-03-04T14:21:10.479Z,993.15
2017-03-04T14:22:10.518Z,993.14
2017-03-04T14:23:10.552Z,993.11
2017-03-04T14:24:10.583Z,993.09
2017-03-04T14:25:10.618Z,993.1
2017-03-04T14:26:10.658Z,993.07
2017-03-04T14:27:10.692Z,993.04
2017-03-04T14:28:10.723Z,993.02
2017-03-04T14:29:10.765Z,992.98
2017-03-04T14:30:10.781Z,992.94
2017-03-04T14:31:10.829Z,992.98
2017-03-04T14:32:10.867Z,992.92
2017-03-04T14:33:10.897Z,992.98
2017-03-04T14:34:10.923Z,992.97
2017-03-04T14:35:10.970Z,992.96
2017-03-04T14:36:11.005Z,992.94
2017-03-04T14:37:11.048Z,992.98
2017-03-04T14:38:11.073Z,992.93
2017-03-04T14:39:11.109Z,992.92
2017-03-04T14:40:11.142Z,992.93
2017-03-04T14:41:11.176Z,992.89
2017-03-04T14:42:11.210Z,992.95
2017-03-04T14:43:11.233Z,992.93
2017-03-04T14:44:11.279Z,992.94
2017-03-04T14:45:11.321Z,992.91
2017-03-04T14:46:11.346Z,992.92
2017-03-04T14:47:11.372Z,992.87
2017-03-04T14:48:11.621Z,992.85
2017-03-04T14:49:11.457Z,992.87
2017-03-04T14:50:11.476Z,992.85
2017-03-04T14:51:11.523Z,992.88
2017-03-04T14:52:11.575Z,992.87
2017-03-04T14:53:11.596Z,992.77
2017-03-04T14:54:11.627Z,992.88
2017-03-04T14:55:11.662Z,992.75
2017-03-04T14:56:11.704Z,992.74
2017-03-04T14:57:11.731Z,992.79
2017-03-04T14:58:11.767Z,992.7
2017-03-04T14:59:11.813Z,992.68
2017-03-04T15:00:11.843Z,992.61
2017-03-04T15:01:11.859Z,992.63
2017-03-04T15:02:11.902Z,992.64
2017-03-04T15:03:11.939Z,992.65
2017-03-04T15:04:11.971Z,992.65
2017-03-04T15:05:12.004Z,992.6
2017-03-04T15:06:12.039Z,992.58
2017-03-04T15:07:12.072Z,992.57
2017-03-04T15:08:12.106Z,992.55
2017-03-04T15:09:12.144Z,992.52
2017-03-04T15:10:12.178Z,992.57
2017-03-04T15:11:12.215Z,992.55
2017-03-04T15:12:12.248Z,992.55
2017-03-04T15:13:12.276Z,992.56
2017-03-04T15:14:12.337Z,992.5
2017-03-04T15:15:12.350Z,992.47
2017-03-04T15:16:12.360Z,992.51
2017-03-04T15:17:12.419Z,992.48
2017-03-04T15:18:12.456Z,992.52
2017-03-04T15:19:12.468Z,992.53
2017-03-04T15:20:12.519Z,992.46
2017-03-04T15:21:12.555Z,992.48
2017-03-04T15:22:12.569Z,992.42
2017-03-04T15:23:12.622Z,992.43
2017-03-04T15:24:12.659Z,992.42
2017-03-04T15:25:12.771Z,992.41
2017-03-04T15:26:12.726Z,992.46
2017-03-04T15:27:12.765Z,992.4
2017-03-04T15:28:12.800Z,992.43
2017-03-04T15:29:12.830Z,992.49
2017-03-04T15:30:12.889Z,992.47
2017-03-04T15:31:12.900Z,992.43
2017-03-04T15:32:12.933Z,992.45
2017-03-04T15:33:12.967Z,992.47
2017-03-04T15:34:12.996Z,992.49
2017-03-04T15:35:13.032Z,992.47
2017-03-04T15:36:13.073Z,992.44
2017-03-04T15:37:13.101Z,992.41
2017-03-04T15:38:13.139Z,992.47
2017-03-04T15:39:13.175Z,992.41
2017-03-04T15:40:13.204Z,992.39
2017-03-04T15:41:13.241Z,992.38
2017-03-04T15:42:13.274Z,992.39
2017-03-04T15:43:13.308Z,992.4
2017-03-04T15:44:13.343Z,992.41
2017-03-04T15:45:13.374Z,992.38
2017-03-04T15:46:13.412Z,992.43
2017-03-04T15:47:13.439Z,992.42
2017-03-04T15:48:13.470Z,992.42
2017-03-04T15:49:13.513Z,992.45
2017-03-04T15:50:13.546Z,992.45
2017-03-04T15:51:13.558Z,992.42
2017-03-04T15:52:13.614Z,992.48
2017-03-04T15:53:13.645Z,992.45
2017-03-04T15:54:13.673Z,992.44
2017-03-04T15:55:13.715Z,992.46
2017-03-04T15:56:13.748Z,992.44
2017-03-04T15:57:13.784Z,992.44
2017-03-04T15:58:13.817Z,992.47
2017-03-04T15:59:13.855Z,992.47
2017-03-04T16:00:13.872Z,992.52
2017-03-04T16:01:13.918Z,992.5
2017-03-04T16:02:13.954Z,992.45
2017-03-04T16:03:13.968Z,992.45
2017-03-04T16:04:14.017Z,992.54
2017-03-04T16:05:14.059Z,992.45
2017-03-04T16:06:14.067Z,992.44
2017-03-04T16:07:14.105Z,992.45
2017-03-04T16:08:14.158Z,992.48
2017-03-04T16:09:14.186Z,992.52
2017-03-04T16:10:14.222Z,992.52
2017-03-04T16:11:14.259Z,992.53
2017-03-04T16:12:14.288Z,992.51
2017-03-04T16:13:14.320Z,992.51
2017-03-04T16:14:14.355Z,992.5
2017-03-04T16:15:14.378Z,992.56
2017-03-04T16:16:14.423Z,992.49
2017-03-04T16:17:14.464Z,992.51
2017-03-04T16:18:14.478Z,992.5
2017-03-04T16:19:14.527Z,992.5
2017-03-04T16:20:14.566Z,992.5
2017-03-04T16:21:14.578Z,992.51
2017-03-04T16:22:14.627Z,992.5
2017-03-04T16:23:14.662Z,992.49
2017-03-04T16:24:14.675Z,992.51
2017-03-04T16:25:14.729Z,992.5
2017-03-04T16:26:14.764Z,992.45
2017-03-04T16:27:14.785Z,992.48
2017-03-04T16:28:14.832Z,992.47
2017-03-04T16:29:14.863Z,992.41
2017-03-04T16:30:14.896Z,992.42
2017-03-04T16:31:14.936Z,992.37
2017-03-04T16:32:14.965Z,992.3
2017-03-04T16:33:14.998Z,992.32
2017-03-04T16:34:15.031Z,992.34
2017-03-04T16:35:15.062Z,992.34
2017-03-04T16:36:15.100Z,992.27
2017-03-04T16:37:15.127Z,992.31
2017-03-04T16:38:15.162Z,992.28
2017-03-04T16:39:15.195Z,992.28
2017-03-04T16:40:15.231Z,992.31
2017-03-04T16:41:15.263Z,992.3
2017-03-04T16:42:15.297Z,992.29
2017-03-04T16:43:15.330Z,992.3
2017-03-04T16:44:15.362Z,992.3
2017-03-04T16:45:15.395Z,992.28
2017-03-04T16:46:15.413Z,992.28
2017-03-04T16:47:15.470Z,992.22
2017-03-04T16:48:15.492Z,992.23
2017-03-04T16:49:15.526Z,992.24
2017-03-04T16:50:15.565Z,992.16
2017-03-04T16:51:15.590Z,992.22
2017-03-04T16:52:15.629Z,992.19
2017-03-04T16:53:15.661Z,992.2
2017-03-04T16:54:15.672Z,992.17
2017-03-04T16:55:15.727Z,992.2
2017-03-04T16:56:15.759Z,992.15
2017-03-04T16:57:15.770Z,992.15
2017-03-04T16:58:15.826Z,992.12
2017-03-04T16:59:15.857Z,992.11
2017-03-04T17:00:15.879Z,992.13
2017-03-04T17:01:15.911Z,992.07
2017-03-04T17:02:15.954Z,992.09
2017-03-04T17:03:15.988Z,992.07
2017-03-04T17:04:16.026Z,992.11
2017-03-04T17:05:16.059Z,992.09
2017-03-04T17:06:16.089Z,992.11
2017-03-04T17:07:16.126Z,992.09
2017-03-04T17:08:16.156Z,992.09
2017-03-04T17:09:16.188Z,992.11
2017-03-04T17:10:16.220Z,992.12
2017-03-04T17:11:16.253Z,992.17
2017-03-04T17:12:16.287Z,992.14
2017-03-04T17:13:16.319Z,992.14
2017-03-04T17:14:16.352Z,992.14
2017-03-04T17:15:16.389Z,992.17
2017-03-04T17:16:16.420Z,992.17
2017-03-04T17:17:16.452Z,992.17
2017-03-04T17:18:16.485Z,992.17
2017-03-04T17:19:16.516Z,992.21
2017-03-04T17:20:16.551Z,992.2
2017-03-04T17:21:16.584Z,992.22
2017-03-04T17:22:16.616Z,992.19
2017-03-04T17:23:16.648Z,992.25
2017-03-04T17:24:16.686Z,992.28
2017-03-04T17:25:16.695Z,992.24
2017-03-04T17:26:16.743Z,992.26
2017-03-04T17:27:16.781Z,992.29
2017-03-04T17:28:16.807Z,992.27
2017-03-04T17:29:16.843Z,992.31
2017-03-04T17:30:16.875Z,992.31
2017-03-04T17:31:16.905Z,992.3
2017-03-04T17:32:16.943Z,992.31
2017-03-04T17:33:16.972Z,992.28
2017-03-04T17:34:17.006Z,992.29
2017-03-04T17:35:17.039Z,992.28
2017-03-04T17:36:17.072Z,992.26
2017-03-04T17:37:17.098Z,992.3
2017-03-04T17:38:17.136Z,992.29
2017-03-04T17:39:17.166Z,992.32
2017-03-04T17:40:17.200Z,992.31
2017-03-04T17:41:17.231Z,992.28
2017-03-04T17:42:17.265Z,992.25
2017-03-04T17:43:17.296Z,992.27
2017-03-04T17:44:17.333Z,992.26
2017-03-04T17:45:17.353Z,992.28
2017-03-04T17:46:17.395Z,992.19
2017-03-04T17:47:17.428Z,992.19
2017-03-04T17:48:17.461Z,992.14
2017-03-04T17:49:17.492Z,992.2
2017-03-04T17:50:17.527Z,992.13
2017-03-04T17:51:17.549Z,992.14
2017-03-04T17:52:17.592Z,992.09
2017-03-04T17:53:17.617Z,992.07
2017-03-04T17:54:17.651Z,992.07
2017-03-04T17:55:17.700Z,992.05
2017-03-04T17:56:17.720Z,992.03
2017-03-04T17:57:17.748Z,992.01
2017-03-04T17:58:17.783Z,992
2017-03-04T17:59:17.815Z,991.97
2017-03-04T18:00:17.845Z,991.98
2017-03-04T18:01:17.863Z,991.99
2017-03-04T18:02:17.892Z,991.99
2017-03-04T18:03:17.943Z,992.01
2017-03-04T18:04:17.972Z,991.95
2017-03-04T18:05:18.002Z,991.97
2017-03-04T18:06:18.042Z,992.04
2017-03-04T18:07:18.072Z,992.05
2017-03-04T18:08:18.105Z,992.01
2017-03-04T18:09:18.136Z,992.02
2017-03-04T18:10:18.167Z,991.99
2017-03-04T18:11:18.199Z,992.03
2017-03-04T18:12:18.232Z,992.04
2017-03-04T18:13:18.266Z,992.01
2017-03-04T18:14:18.298Z,991.98
2017-03-04T18:15:18.330Z,991.96
2017-03-04T18:16:18.362Z,991.93
2017-03-04T18:17:18.394Z,991.97
2017-03-04T18:18:18.424Z,992
2017-03-04T18:19:18.450Z,991.96
2017-03-04T18:20:18.467Z,991.98
2017-03-04T18:21:18.503Z,991.96
2017-03-04T18:22:18.551Z,991.98
2017-03-04T18:23:18.586Z,991.93
2017-03-04T18:24:18.613Z,991.9
2017-03-04T18:25:18.650Z,991.9
2017-03-04T18:26:18.681Z,991.91
2017-03-04T18:27:18.709Z,991.89
2017-03-04T18:28:18.742Z,991.9
2017-03-04T18:29:18.783Z,991.91
2017-03-04T18:30:18.807Z,991.9
2017-03-04T18:31:18.840Z,991.91
2017-03-04T18:32:18.872Z,991.89
2017-03-04T18:33:18.901Z,991.8
2017-03-04T18:34:18.932Z,991.9
2017-03-04T18:35:18.963Z,991.85
2017-03-04T18:36:19.012Z,991.89
2017-03-04T18:37:19.037Z,991.91
2017-03-04T18:38:19.072Z,991.88
2017-03-04T18:39:19.109Z,991.84
2017-03-04T18:40:19.128Z,991.89
2017-03-04T18:41:19.163Z,991.9
2017-03-04T18:42:19.204Z,991.89
2017-03-04T18:43:19.225Z,991.85
2017-03-04T18:44:19.262Z,991.81
2017-03-04T18:45:19.288Z,991.83
2017-03-04T18:46:19.316Z,991.8
2017-03-04T18:47:19.364Z,991.81
2017-03-04T18:48:19.396Z,991.76
2017-03-04T18:49:19.395Z,991.79
2017-03-04T18:50:19.444Z,991.8
2017-03-04T18:51:19.478Z,991.74
2017-03-04T18:52:19.510Z,991.71
2017-03-04T18:53:19.541Z,991.72
2017-03-04T18:54:19.553Z,991.75
2017-03-04T18:55:19.604Z,991.72
2017-03-04T18:56:19.636Z,991.74
2017-03-04T18:57:19.669Z,991.78
2017-03-04T18:58:19.701Z,991.81
2017-03-04T18:59:19.738Z,991.78
2017-03-04T19:00:19.761Z,991.76
2017-03-04T19:01:19.825Z,991.77
2017-03-04T19:02:19.829Z,991.77
2017-03-04T19:03:19.861Z,991.81
2017-03-04T19:04:19.873Z,991.83
2017-03-04T19:05:20.120Z,991.77
2017-03-04T19:06:19.937Z,991.83
2017-03-04T19:07:19.981Z,991.77
2017-03-04T19:08:20.013Z,991.77
2017-03-04T19:09:20.048Z,991.73
2017-03-04T19:10:20.078Z,991.81
2017-03-04T19:11:20.094Z,991.77
2017-03-04T19:12:20.145Z,991.75
2017-03-04T19:13:20.173Z,991.8
2017-03-04T19:14:20.207Z,991.77
2017-03-04T19:15:20.238Z,991.74
2017-03-04T19:16:20.270Z,991.76
2017-03-04T19:17:20.297Z,991.75
2017-03-04T19:18:20.329Z,991.76
2017-03-04T19:19:20.363Z,991.8
2017-03-04T19:20:20.396Z,991.79
2017-03-04T19:21:20.409Z,991.75
2017-03-04T19:22:20.441Z,991.79